sensor_id;sensor_type;location;lat;lon;timestamp;P1;durP1;ratioP1;P2;durP2;ratioP2
22363;SDS011;11349;53.412;-1.328;2023-07-13T00:01:57;5.15;;;1.40;;
22363;SDS011;11349;53.412;-1.328;2023-07-13T00:04:23;6.22;;;2.33;;
22363;SDS011;11349;53.412;-1.328;2023-07-13T00:06:50;6.07;;;1.73;;
22363;SDS011;11349;53.412;-1.328;2023-07-13T00:09:17;4.85;;;1.67;;
22363;SDS011;11349;53.412;-1.328;2023-07-13T00:11:43;6.00;;;2.08;;
22363;SDS011;11349;53.412;-1.328;2023-07-13T00:14:10;3.75;;;1.85;;
22363;SDS011;11349;53.412;-1.328;2023-07-13T00:16:37;6.47;;;2.22;;
22363;SDS011;11349;53.412;-1.328;2023-07-13T00:19:05;5.43;;;1.90;;
22363;SDS011;11349;53.412;-1.328;2023-07-13T00:21:31;6.63;;;2.10;;
22363;SDS011;11349;53.412;-1.328;2023-07-13T00:23:57;8.05;;;1.88;;
22363;SDS011;11349;53.412;-1.328;2023-07-13T00:26:23;5.07;;;1.50;;
22363;SDS011;11349;53.412;-1.328;2023-07-13T00:28:48;6.10;;;2.30;;
22363;SDS011;11349;53.412;-1.328;2023-07-13T00:31:14;4.60;;;2.03;;
22363;SDS011;11349;53.412;-1.328;2023-07-13T00:33:42;8.48;;;2.03;;
22363;SDS011;11349;53.412;-1.328;2023-07-13T00:36:09;8.13;;;2.10;;
22363;SDS011;11349;53.412;-1.328;2023-07-13T00:38:35;6.75;;;1.83;;
22363;SDS011;11349;53.412;-1.328;2023-07-13T00:41:02;4.60;;;1.65;;
22363;SDS011;11349;53.412;-1.328;2023-07-13T00:43:28;5.25;;;1.67;;
22363;SDS011;11349;53.412;-1.328;2023-07-13T00:48:27;6.28;;;2.25;;
22363;SDS011;11349;53.412;-1.328;2023-07-13T00:50:59;7.30;;;2.15;;
22363;SDS011;11349;53.412;-1.328;2023-07-13T00:53:26;8.45;;;2.50;;
22363;SDS011;11349;53.412;-1.328;2023-07-13T00:55:53;5.70;;;2.53;;
22363;SDS011;11349;53.412;-1.328;2023-07-13T00:58:21;6.90;;;2.70;;
22363;SDS011;11349;53.412;-1.328;2023-07-13T01:00:48;8.40;;;2.78;;
22363;SDS011;11349;53.412;-1.328;2023-07-13T01:03:16;7.65;;;3.15;;
22363;SDS011;11349;53.412;-1.328;2023-07-13T01:05:42;9.45;;;3.33;;
22363;SDS011;11349;53.412;-1.328;2023-07-13T01:08:08;11.13;;;3.22;;
22363;SDS011;11349;53.412;-1.328;2023-07-13T01:10:34;12.35;;;2.97;;
22363;SDS011;11349;53.412;-1.328;2023-07-13T01:13:09;11.68;;;3.88;;
22363;SDS011;11349;53.412;-1.328;2023-07-13T01:15:43;12.63;;;4.10;;
22363;SDS011;11349;53.412;-1.328;2023-07-13T01:18:11;9.35;;;3.53;;
22363;SDS011;11349;53.412;-1.328;2023-07-13T01:20:40;10.93;;;3.25;;
22363;SDS011;11349;53.412;-1.328;2023-07-13T01:23:07;7.35;;;3.40;;
22363;SDS011;11349;53.412;-1.328;2023-07-13T01:25:35;8.55;;;3.03;;
22363;SDS011;11349;53.412;-1.328;2023-07-13T01:28:05;7.72;;;2.40;;
22363;SDS011;11349;53.412;-1.328;2023-07-13T01:30:36;8.73;;;2.80;;
22363;SDS011;11349;53.412;-1.328;2023-07-13T01:33:05;7.72;;;2.80;;
22363;SDS011;11349;53.412;-1.328;2023-07-13T01:35:32;9.93;;;2.50;;
22363;SDS011;11349;53.412;-1.328;2023-07-13T01:37:58;11.18;;;2.55;;
22363;SDS011;11349;53.412;-1.328;2023-07-13T01:40:25;7.18;;;2.63;;
22363;SDS011;11349;53.412;-1.328;2023-07-13T01:42:51;8.80;;;2.55;;
22363;SDS011;11349;53.412;-1.328;2023-07-13T01:45:16;6.20;;;1.70;;
22363;SDS011;11349;53.412;-1.328;2023-07-13T01:47:42;7.32;;;2.28;;
22363;SDS011;11349;53.412;-1.328;2023-07-13T01:50:08;5.15;;;2.10;;
22363;SDS011;11349;53.412;-1.328;2023-07-13T01:52:34;8.85;;;2.10;;
22363;SDS011;11349;53.412;-1.328;2023-07-13T01:55:00;9.15;;;2.63;;
22363;SDS011;11349;53.412;-1.328;2023-07-13T01:57:26;5.47;;;2.20;;
22363;SDS011;11349;53.412;-1.328;2023-07-13T01:59:51;6.03;;;2.47;;
22363;SDS011;11349;53.412;-1.328;2023-07-13T02:02:17;7.70;;;2.42;;
22363;SDS011;11349;53.412;-1.328;2023-07-13T02:04:42;5.20;;;1.75;;
22363;SDS011;11349;53.412;-1.328;2023-07-13T02:07:08;5.65;;;1.90;;
22363;SDS011;11349;53.412;-1.328;2023-07-13T02:09:34;7.38;;;1.90;;
22363;SDS011;11349;53.412;-1.328;2023-07-13T02:12:00;4.70;;;1.75;;
22363;SDS011;11349;53.412;-1.328;2023-07-13T02:14:26;5.68;;;2.13;;
22363;SDS011;11349;53.412;-1.328;2023-07-13T02:16:52;4.90;;;2.33;;
22363;SDS011;11349;53.412;-1.328;2023-07-13T02:19:17;6.10;;;2.65;;
22363;SDS011;11349;53.412;-1.328;2023-07-13T02:21:43;6.50;;;2.45;;
22363;SDS011;11349;53.412;-1.328;2023-07-13T02:24:09;5.20;;;2.75;;
22363;SDS011;11349;53.412;-1.328;2023-07-13T02:26:34;6.65;;;2.40;;
22363;SDS011;11349;53.412;-1.328;2023-07-13T02:29:01;5.22;;;2.55;;
22363;SDS011;11349;53.412;-1.328;2023-07-13T02:31:26;7.15;;;2.53;;
22363;SDS011;11349;53.412;-1.328;2023-07-13T02:33:52;8.82;;;2.75;;
22363;SDS011;11349;53.412;-1.328;2023-07-13T02:36:18;11.70;;;4.35;;
22363;SDS011;11349;53.412;-1.328;2023-07-13T02:38:45;8.98;;;4.13;;
22363;SDS011;11349;53.412;-1.328;2023-07-13T02:41:10;18.75;;;5.82;;
22363;SDS011;11349;53.412;-1.328;2023-07-13T02:43:37;16.25;;;6.28;;
22363;SDS011;11349;53.412;-1.328;2023-07-13T02:46:03;12.95;;;5.70;;
22363;SDS011;11349;53.412;-1.328;2023-07-13T02:48:35;14.13;;;5.78;;
22363;SDS011;11349;53.412;-1.328;2023-07-13T02:51:02;12.40;;;4.88;;
22363;SDS011;11349;53.412;-1.328;2023-07-13T02:53:28;13.52;;;5.53;;
22363;SDS011;11349;53.412;-1.328;2023-07-13T02:55:53;11.73;;;4.60;;
22363;SDS011;11349;53.412;-1.328;2023-07-13T02:58:19;11.80;;;4.35;;
22363;SDS011;11349;53.412;-1.328;2023-07-13T03:00:46;10.90;;;3.97;;
22363;SDS011;11349;53.412;-1.328;2023-07-13T03:03:12;7.55;;;3.92;;
22363;SDS011;11349;53.412;-1.328;2023-07-13T03:05:40;10.25;;;3.85;;
22363;SDS011;11349;53.412;-1.328;2023-07-13T03:08:07;12.80;;;4.13;;
22363;SDS011;11349;53.412;-1.328;2023-07-13T03:10:33;7.70;;;4.22;;
22363;SDS011;11349;53.412;-1.328;2023-07-13T03:12:59;10.07;;;3.95;;
22363;SDS011;11349;53.412;-1.328;2023-07-13T03:15:25;8.23;;;3.75;;
22363;SDS011;11349;53.412;-1.328;2023-07-13T03:17:51;6.80;;;3.40;;
22363;SDS011;11349;53.412;-1.328;2023-07-13T03:20:17;8.18;;;3.70;;
22363;SDS011;11349;53.412;-1.328;2023-07-13T03:22:43;10.32;;;3.95;;
22363;SDS011;11349;53.412;-1.328;2023-07-13T03:25:10;9.05;;;4.30;;
22363;SDS011;11349;53.412;-1.328;2023-07-13T03:27:36;7.57;;;3.75;;
22363;SDS011;11349;53.412;-1.328;2023-07-13T03:30:03;7.43;;;4.13;;
22363;SDS011;11349;53.412;-1.328;2023-07-13T03:32:30;9.50;;;3.83;;
22363;SDS011;11349;53.412;-1.328;2023-07-13T03:34:56;7.75;;;4.05;;
22363;SDS011;11349;53.412;-1.328;2023-07-13T03:37:21;7.97;;;4.70;;
22363;SDS011;11349;53.412;-1.328;2023-07-13T03:39:47;11.93;;;4.70;;
22363;SDS011;11349;53.412;-1.328;2023-07-13T03:42:13;10.45;;;4.68;;
22363;SDS011;11349;53.412;-1.328;2023-07-13T03:44:40;7.75;;;4.60;;
22363;SDS011;11349;53.412;-1.328;2023-07-13T03:47:05;6.70;;;3.95;;
22363;SDS011;11349;53.412;-1.328;2023-07-13T03:49:33;9.25;;;4.10;;
22363;SDS011;11349;53.412;-1.328;2023-07-13T03:52:00;7.93;;;4.13;;
22363;SDS011;11349;53.412;-1.328;2023-07-13T03:54:25;7.55;;;3.78;;
22363;SDS011;11349;53.412;-1.328;2023-07-13T03:56:52;9.02;;;4.40;;
22363;SDS011;11349;53.412;-1.328;2023-07-13T03:59:17;7.30;;;4.13;;
22363;SDS011;11349;53.412;-1.328;2023-07-13T04:01:43;9.70;;;4.45;;
22363;SDS011;11349;53.412;-1.328;2023-07-13T04:04:09;13.18;;;4.40;;
22363;SDS011;11349;53.412;-1.328;2023-07-13T04:06:35;8.40;;;4.05;;
22363;SDS011;11349;53.412;-1.328;2023-07-13T04:09:02;9.25;;;4.00;;
22363;SDS011;11349;53.412;-1.328;2023-07-13T04:11:32;9.45;;;4.40;;
22363;SDS011;11349;53.412;-1.328;2023-07-13T04:13:57;12.77;;;4.07;;
22363;SDS011;11349;53.412;-1.328;2023-07-13T04:16:23;9.80;;;3.92;;
22363;SDS011;11349;53.412;-1.328;2023-07-13T04:18:50;8.90;;;3.78;;
22363;SDS011;11349;53.412;-1.328;2023-07-13T04:21:20;12.02;;;4.68;;
22363;SDS011;11349;53.412;-1.328;2023-07-13T04:23:46;13.60;;;5.15;;
22363;SDS011;11349;53.412;-1.328;2023-07-13T04:26:12;13.63;;;6.53;;
22363;SDS011;11349;53.412;-1.328;2023-07-13T04:28:37;15.88;;;6.18;;
22363;SDS011;11349;53.412;-1.328;2023-07-13T04:31:03;14.25;;;7.47;;
22363;SDS011;11349;53.412;-1.328;2023-07-13T04:33:29;17.42;;;8.27;;
22363;SDS011;11349;53.412;-1.328;2023-07-13T04:35:55;20.92;;;9.50;;
22363;SDS011;11349;53.412;-1.328;2023-07-13T04:38:23;17.08;;;9.48;;
22363;SDS011;11349;53.412;-1.328;2023-07-13T04:40:50;19.92;;;9.40;;
22363;SDS011;11349;53.412;-1.328;2023-07-13T04:43:16;16.80;;;8.93;;
22363;SDS011;11349;53.412;-1.328;2023-07-13T04:45:42;15.25;;;8.05;;
22363;SDS011;11349;53.412;-1.328;2023-07-13T04:48:08;17.92;;;7.55;;
22363;SDS011;11349;53.412;-1.328;2023-07-13T04:50:35;14.55;;;7.10;;
22363;SDS011;11349;53.412;-1.328;2023-07-13T04:53:02;13.35;;;7.20;;
22363;SDS011;11349;53.412;-1.328;2023-07-13T04:55:29;13.23;;;6.40;;
22363;SDS011;11349;53.412;-1.328;2023-07-13T04:57:55;17.02;;;6.57;;
22363;SDS011;11349;53.412;-1.328;2023-07-13T05:00:23;15.63;;;7.05;;
22363;SDS011;11349;53.412;-1.328;2023-07-13T05:02:53;12.10;;;6.45;;
22363;SDS011;11349;53.412;-1.328;2023-07-13T05:05:20;10.70;;;6.15;;
22363;SDS011;11349;53.412;-1.328;2023-07-13T05:07:45;12.30;;;6.00;;
22363;SDS011;11349;53.412;-1.328;2023-07-13T05:10:11;9.15;;;5.45;;
22363;SDS011;11349;53.412;-1.328;2023-07-13T05:12:38;11.07;;;6.10;;
22363;SDS011;11349;53.412;-1.328;2023-07-13T05:15:04;14.90;;;6.47;;
22363;SDS011;11349;53.412;-1.328;2023-07-13T05:17:30;12.50;;;5.88;;
22363;SDS011;11349;53.412;-1.328;2023-07-13T05:19:55;12.68;;;6.20;;
22363;SDS011;11349;53.412;-1.328;2023-07-13T05:22:21;12.85;;;6.15;;
22363;SDS011;11349;53.412;-1.328;2023-07-13T05:24:47;12.38;;;5.93;;
22363;SDS011;11349;53.412;-1.328;2023-07-13T05:27:12;12.95;;;5.35;;
22363;SDS011;11349;53.412;-1.328;2023-07-13T05:29:38;11.07;;;4.90;;
22363;SDS011;11349;53.412;-1.328;2023-07-13T05:32:04;9.20;;;4.43;;
22363;SDS011;11349;53.412;-1.328;2023-07-13T05:34:30;8.57;;;4.13;;
22363;SDS011;11349;53.412;-1.328;2023-07-13T05:36:56;7.65;;;4.00;;
22363;SDS011;11349;53.412;-1.328;2023-07-13T05:39:21;8.10;;;3.92;;
22363;SDS011;11349;53.412;-1.328;2023-07-13T05:41:47;9.55;;;4.65;;
22363;SDS011;11349;53.412;-1.328;2023-07-13T05:44:16;6.45;;;3.78;;
22363;SDS011;11349;53.412;-1.328;2023-07-13T05:46:41;6.93;;;3.78;;
22363;SDS011;11349;53.412;-1.328;2023-07-13T05:49:07;8.27;;;4.60;;
22363;SDS011;11349;53.412;-1.328;2023-07-13T05:51:33;6.90;;;4.13;;
22363;SDS011;11349;53.412;-1.328;2023-07-13T05:53:58;8.02;;;4.70;;
22363;SDS011;11349;53.412;-1.328;2023-07-13T05:56:24;7.68;;;4.45;;
22363;SDS011;11349;53.412;-1.328;2023-07-13T05:58:51;7.72;;;5.15;;
22363;SDS011;11349;53.412;-1.328;2023-07-13T06:01:17;9.73;;;5.20;;
22363;SDS011;11349;53.412;-1.328;2023-07-13T06:03:45;6.70;;;4.70;;
22363;SDS011;11349;53.412;-1.328;2023-07-13T06:06:11;9.75;;;5.63;;
22363;SDS011;11349;53.412;-1.328;2023-07-13T06:08:36;9.57;;;4.97;;
22363;SDS011;11349;53.412;-1.328;2023-07-13T06:11:24;6.47;;;4.47;;
22363;SDS011;11349;53.412;-1.328;2023-07-13T06:13:50;9.93;;;5.38;;
22363;SDS011;11349;53.412;-1.328;2023-07-13T06:16:16;11.15;;;6.28;;
22363;SDS011;11349;53.412;-1.328;2023-07-13T06:18:42;8.75;;;4.60;;
22363;SDS011;11349;53.412;-1.328;2023-07-13T06:21:10;6.15;;;4.30;;
22363;SDS011;11349;53.412;-1.328;2023-07-13T06:23:38;10.38;;;4.72;;
22363;SDS011;11349;53.412;-1.328;2023-07-13T06:26:04;9.65;;;4.60;;
22363;SDS011;11349;53.412;-1.328;2023-07-13T06:28:30;6.03;;;4.80;;
22363;SDS011;11349;53.412;-1.328;2023-07-13T06:30:57;7.90;;;4.47;;
22363;SDS011;11349;53.412;-1.328;2023-07-13T06:33:24;7.50;;;5.10;;
22363;SDS011;11349;53.412;-1.328;2023-07-13T06:35:50;10.45;;;5.28;;
22363;SDS011;11349;53.412;-1.328;2023-07-13T06:38:16;7.43;;;4.15;;
22363;SDS011;11349;53.412;-1.328;2023-07-13T06:40:42;8.43;;;4.38;;
22363;SDS011;11349;53.412;-1.328;2023-07-13T06:43:08;6.70;;;4.22;;
22363;SDS011;11349;53.412;-1.328;2023-07-13T06:45:41;7.95;;;4.60;;
22363;SDS011;11349;53.412;-1.328;2023-07-13T06:48:15;8.90;;;4.88;;
22363;SDS011;11349;53.412;-1.328;2023-07-13T06:50:42;7.30;;;3.92;;
22363;SDS011;11349;53.412;-1.328;2023-07-13T06:53:08;5.28;;;3.38;;
22363;SDS011;11349;53.412;-1.328;2023-07-13T06:55:34;4.53;;;2.60;;
22363;SDS011;11349;53.412;-1.328;2023-07-13T06:58:00;5.97;;;2.20;;
22363;SDS011;11349;53.412;-1.328;2023-07-13T07:00:26;5.35;;;2.53;;
22363;SDS011;11349;53.412;-1.328;2023-07-13T07:02:51;5.43;;;2.92;;
22363;SDS011;11349;53.412;-1.328;2023-07-13T07:05:17;7.30;;;2.67;;
22363;SDS011;11349;53.412;-1.328;2023-07-13T07:07:47;5.88;;;2.17;;
22363;SDS011;11349;53.412;-1.328;2023-07-13T07:10:17;4.82;;;2.17;;
22363;SDS011;11349;53.412;-1.328;2023-07-13T07:12:43;3.63;;;2.03;;
22363;SDS011;11349;53.412;-1.328;2023-07-13T07:15:10;6.28;;;2.90;;
22363;SDS011;11349;53.412;-1.328;2023-07-13T07:17:36;5.30;;;2.40;;
22363;SDS011;11349;53.412;-1.328;2023-07-13T07:20:02;6.82;;;2.25;;
22363;SDS011;11349;53.412;-1.328;2023-07-13T07:22:29;9.43;;;2.08;;
22363;SDS011;11349;53.412;-1.328;2023-07-13T07:24:55;3.10;;;1.67;;
22363;SDS011;11349;53.412;-1.328;2023-07-13T07:27:22;3.72;;;1.90;;
22363;SDS011;11349;53.412;-1.328;2023-07-13T07:29:48;3.80;;;2.13;;
22363;SDS011;11349;53.412;-1.328;2023-07-13T07:32:13;5.50;;;2.13;;
22363;SDS011;11349;53.412;-1.328;2023-07-13T07:34:39;3.25;;;1.90;;
22363;SDS011;11349;53.412;-1.328;2023-07-13T07:37:05;6.90;;;2.38;;
22363;SDS011;11349;53.412;-1.328;2023-07-13T07:39:31;4.68;;;2.22;;
22363;SDS011;11349;53.412;-1.328;2023-07-13T07:41:57;5.53;;;2.15;;
22363;SDS011;11349;53.412;-1.328;2023-07-13T07:44:23;4.57;;;2.25;;
22363;SDS011;11349;53.412;-1.328;2023-07-13T07:46:49;5.93;;;2.10;;
22363;SDS011;11349;53.412;-1.328;2023-07-13T07:49:15;5.10;;;2.10;;
22363;SDS011;11349;53.412;-1.328;2023-07-13T07:51:41;2.90;;;1.42;;
22363;SDS011;11349;53.412;-1.328;2023-07-13T07:54:07;4.25;;;1.73;;
22363;SDS011;11349;53.412;-1.328;2023-07-13T07:56:32;3.85;;;1.50;;
22363;SDS011;11349;53.412;-1.328;2023-07-13T07:58:58;3.33;;;1.75;;
22363;SDS011;11349;53.412;-1.328;2023-07-13T08:01:24;5.43;;;1.92;;
22363;SDS011;11349;53.412;-1.328;2023-07-13T08:03:50;7.15;;;1.98;;
22363;SDS011;11349;53.412;-1.328;2023-07-13T08:06:15;4.78;;;1.73;;
22363;SDS011;11349;53.412;-1.328;2023-07-13T08:08:41;4.53;;;1.80;;
22363;SDS011;11349;53.412;-1.328;2023-07-13T08:11:07;3.28;;;1.50;;
22363;SDS011;11349;53.412;-1.328;2023-07-13T08:13:34;4.03;;;1.67;;
22363;SDS011;11349;53.412;-1.328;2023-07-13T08:16:00;3.30;;;1.73;;
22363;SDS011;11349;53.412;-1.328;2023-07-13T08:18:26;3.30;;;1.38;;
22363;SDS011;11349;53.412;-1.328;2023-07-13T08:20:53;3.15;;;1.52;;
22363;SDS011;11349;53.412;-1.328;2023-07-13T08:23:21;3.63;;;1.23;;
22363;SDS011;11349;53.412;-1.328;2023-07-13T08:25:50;4.60;;;1.20;;
22363;SDS011;11349;53.412;-1.328;2023-07-13T08:28:17;5.13;;;1.40;;
22363;SDS011;11349;53.412;-1.328;2023-07-13T08:30:44;3.67;;;1.40;;
22363;SDS011;11349;53.412;-1.328;2023-07-13T08:33:13;3.28;;;1.15;;
22363;SDS011;11349;53.412;-1.328;2023-07-13T08:35:40;2.25;;;1.00;;
22363;SDS011;11349;53.412;-1.328;2023-07-13T08:38:06;6.53;;;1.55;;
22363;SDS011;11349;53.412;-1.328;2023-07-13T08:40:31;3.03;;;1.10;;
22363;SDS011;11349;53.412;-1.328;2023-07-13T08:42:59;4.10;;;1.17;;
22363;SDS011;11349;53.412;-1.328;2023-07-13T08:45:28;3.97;;;1.20;;
22363;SDS011;11349;53.412;-1.328;2023-07-13T08:48:11;3.33;;;1.27;;
22363;SDS011;11349;53.412;-1.328;2023-07-13T08:53:47;5.00;;;1.38;;
22363;SDS011;11349;53.412;-1.328;2023-07-13T08:56:22;2.63;;;1.33;;
22363;SDS011;11349;53.412;-1.328;2023-07-13T08:58:51;4.57;;;1.52;;
22363;SDS011;11349;53.412;-1.328;2023-07-13T09:01:38;5.80;;;1.30;;
22363;SDS011;11349;53.412;-1.328;2023-07-13T09:06:50;3.67;;;0.95;;
22363;SDS011;11349;53.412;-1.328;2023-07-13T09:09:25;4.20;;;1.55;;
22363;SDS011;11349;53.412;-1.328;2023-07-13T09:15:04;2.00;;;0.85;;
22363;SDS011;11349;53.412;-1.328;2023-07-13T09:17:45;4.18;;;1.25;;
22363;SDS011;11349;53.412;-1.328;2023-07-13T09:20:23;3.83;;;1.23;;
22363;SDS011;11349;53.412;-1.328;2023-07-13T09:23:09;5.03;;;1.30;;
22363;SDS011;11349;53.412;-1.328;2023-07-13T09:25:43;5.40;;;1.20;;
22363;SDS011;11349;53.412;-1.328;2023-07-13T09:28:18;3.95;;;1.15;;
22363;SDS011;11349;53.412;-1.328;2023-07-13T09:33:31;4.32;;;1.42;;
22363;SDS011;11349;53.412;-1.328;2023-07-13T09:35:57;3.72;;;1.50;;
22363;SDS011;11349;53.412;-1.328;2023-07-13T09:38:24;3.70;;;1.35;;
22363;SDS011;11349;53.412;-1.328;2023-07-13T09:46:39;3.30;;;1.10;;
22363;SDS011;11349;53.412;-1.328;2023-07-13T09:49:17;4.18;;;1.33;;
22363;SDS011;11349;53.412;-1.328;2023-07-13T09:51:43;4.22;;;1.42;;
22363;SDS011;11349;53.412;-1.328;2023-07-13T09:54:23;3.42;;;1.67;;
22363;SDS011;11349;53.412;-1.328;2023-07-13T09:56:57;3.85;;;1.25;;
22363;SDS011;11349;53.412;-1.328;2023-07-13T09:59:26;5.15;;;1.33;;
22363;SDS011;11349;53.412;-1.328;2023-07-13T10:01:55;4.57;;;1.15;;
22363;SDS011;11349;53.412;-1.328;2023-07-13T10:04:26;3.38;;;1.48;;
22363;SDS011;11349;53.412;-1.328;2023-07-13T10:07:06;3.08;;;1.05;;
22363;SDS011;11349;53.412;-1.328;2023-07-13T10:09:34;4.20;;;0.90;;
22363;SDS011;11349;53.412;-1.328;2023-07-13T10:12:00;2.45;;;1.20;;
22363;SDS011;11349;53.412;-1.328;2023-07-13T10:14:26;2.03;;;1.20;;
22363;SDS011;11349;53.412;-1.328;2023-07-13T10:16:57;2.33;;;0.93;;
22363;SDS011;11349;53.412;-1.328;2023-07-13T10:19:27;2.78;;;1.10;;
22363;SDS011;11349;53.412;-1.328;2023-07-13T10:24:57;3.67;;;1.02;;
22363;SDS011;11349;53.412;-1.328;2023-07-13T10:27:32;4.30;;;1.60;;
22363;SDS011;11349;53.412;-1.328;2023-07-13T10:30:10;3.40;;;1.30;;
22363;SDS011;11349;53.412;-1.328;2023-07-13T10:32:43;3.05;;;1.30;;
22363;SDS011;11349;53.412;-1.328;2023-07-13T10:35:13;4.72;;;1.80;;
22363;SDS011;11349;53.412;-1.328;2023-07-13T10:37:51;3.90;;;1.45;;
22363;SDS011;11349;53.412;-1.328;2023-07-13T10:40:25;4.13;;;1.30;;
22363;SDS011;11349;53.412;-1.328;2023-07-13T10:42:59;2.92;;;1.30;;
22363;SDS011;11349;53.412;-1.328;2023-07-13T10:45:28;3.72;;;1.35;;
22363;SDS011;11349;53.412;-1.328;2023-07-13T10:47:58;2.75;;;1.13;;
22363;SDS011;11349;53.412;-1.328;2023-07-13T10:50:26;2.80;;;1.15;;
22363;SDS011;11349;53.412;-1.328;2023-07-13T10:52:56;2.95;;;1.10;;
22363;SDS011;11349;53.412;-1.328;2023-07-13T10:58:18;3.50;;;1.20;;
22363;SDS011;11349;53.412;-1.328;2023-07-13T11:03:31;3.58;;;1.58;;
22363;SDS011;11349;53.412;-1.328;2023-07-13T11:06:15;2.80;;;1.30;;
22363;SDS011;11349;53.412;-1.328;2023-07-13T11:08:57;3.28;;;1.52;;
22363;SDS011;11349;53.412;-1.328;2023-07-13T11:18:48;3.25;;;1.30;;
22363;SDS011;11349;53.412;-1.328;2023-07-13T11:21:22;2.10;;;1.08;;
22363;SDS011;11349;53.412;-1.328;2023-07-13T11:23:52;5.05;;;1.60;;
22363;SDS011;11349;53.412;-1.328;2023-07-13T11:31:42;2.83;;;1.20;;
22363;SDS011;11349;53.412;-1.328;2023-07-13T11:34:16;3.38;;;1.30;;
22363;SDS011;11349;53.412;-1.328;2023-07-13T11:36:48;3.38;;;1.30;;
22363;SDS011;11349;53.412;-1.328;2023-07-13T11:39:57;5.05;;;1.73;;
22363;SDS011;11349;53.412;-1.328;2023-07-13T11:42:08;3.95;;;1.30;;
22363;SDS011;11349;53.412;-1.328;2023-07-13T11:44:43;2.33;;;1.10;;
22363;SDS011;11349;53.412;-1.328;2023-07-13T11:47:14;3.03;;;1.45;;
22363;SDS011;11349;53.412;-1.328;2023-07-13T11:49:48;4.03;;;1.38;;
22363;SDS011;11349;53.412;-1.328;2023-07-13T11:52:18;4.72;;;1.50;;
22363;SDS011;11349;53.412;-1.328;2023-07-13T11:54:50;4.47;;;1.60;;
22363;SDS011;11349;53.412;-1.328;2023-07-13T11:59:52;5.97;;;1.75;;
22363;SDS011;11349;53.412;-1.328;2023-07-13T12:02:33;3.25;;;1.35;;
22363;SDS011;11349;53.412;-1.328;2023-07-13T12:05:04;3.63;;;1.20;;
22363;SDS011;11349;53.412;-1.328;2023-07-13T12:07:35;6.63;;;1.38;;
22363;SDS011;11349;53.412;-1.328;2023-07-13T12:10:03;3.90;;;1.20;;
22363;SDS011;11349;53.412;-1.328;2023-07-13T12:12:40;3.88;;;1.50;;
22363;SDS011;11349;53.412;-1.328;2023-07-13T12:15:16;4.20;;;1.45;;
22363;SDS011;11349;53.412;-1.328;2023-07-13T12:17:42;2.75;;;1.02;;
22363;SDS011;11349;53.412;-1.328;2023-07-13T12:20:37;2.88;;;1.15;;
22363;SDS011;11349;53.412;-1.328;2023-07-13T12:23:00;3.47;;;1.23;;
22363;SDS011;11349;53.412;-1.328;2023-07-13T12:25:27;2.75;;;1.30;;
22363;SDS011;11349;53.412;-1.328;2023-07-13T12:27:54;4.35;;;1.13;;
22363;SDS011;11349;53.412;-1.328;2023-07-13T12:30:30;2.85;;;1.10;;
22363;SDS011;11349;53.412;-1.328;2023-07-13T12:33:10;2.92;;;1.00;;
22363;SDS011;11349;53.412;-1.328;2023-07-13T12:35:49;4.45;;;1.45;;
22363;SDS011;11349;53.412;-1.328;2023-07-13T12:38:17;2.97;;;1.30;;
22363;SDS011;11349;53.412;-1.328;2023-07-13T12:40:48;3.47;;;1.20;;
22363;SDS011;11349;53.412;-1.328;2023-07-13T12:43:15;1.70;;;0.90;;
22363;SDS011;11349;53.412;-1.328;2023-07-13T12:45:58;5.45;;;1.45;;
22363;SDS011;11349;53.412;-1.328;2023-07-13T12:48:26;4.18;;;1.20;;
22363;SDS011;11349;53.412;-1.328;2023-07-13T12:50:53;3.38;;;1.40;;
22363;SDS011;11349;53.412;-1.328;2023-07-13T12:53:21;3.13;;;1.20;;
22363;SDS011;11349;53.412;-1.328;2023-07-13T12:55:55;3.60;;;1.70;;
22363;SDS011;11349;53.412;-1.328;2023-07-13T12:58:38;2.75;;;1.27;;
22363;SDS011;11349;53.412;-1.328;2023-07-13T13:01:10;4.40;;;1.50;;
22363;SDS011;11349;53.412;-1.328;2023-07-13T13:03:44;3.45;;;1.40;;
22363;SDS011;11349;53.412;-1.328;2023-07-13T13:08:48;3.03;;;1.10;;
22363;SDS011;11349;53.412;-1.328;2023-07-13T13:11:23;2.95;;;1.35;;
22363;SDS011;11349;53.412;-1.328;2023-07-13T13:13:51;3.72;;;1.25;;
22363;SDS011;11349;53.412;-1.328;2023-07-13T13:18:57;2.97;;;1.05;;
22363;SDS011;11349;53.412;-1.328;2023-07-13T13:21:25;2.05;;;1.00;;
22363;SDS011;11349;53.412;-1.328;2023-07-13T13:23:51;3.17;;;1.27;;
22363;SDS011;11349;53.412;-1.328;2023-07-13T13:26:18;3.47;;;1.70;;
22363;SDS011;11349;53.412;-1.328;2023-07-13T13:28:46;2.88;;;1.40;;
22363;SDS011;11349;53.412;-1.328;2023-07-13T13:31:15;2.85;;;1.05;;
22363;SDS011;11349;53.412;-1.328;2023-07-13T13:33:42;2.58;;;1.45;;
22363;SDS011;11349;53.412;-1.328;2023-07-13T13:36:17;3.45;;;1.15;;
22363;SDS011;11349;53.412;-1.328;2023-07-13T13:38:45;3.85;;;1.17;;
22363;SDS011;11349;53.412;-1.328;2023-07-13T13:41:12;4.80;;;1.40;;
22363;SDS011;11349;53.412;-1.328;2023-07-13T13:43:39;4.10;;;1.48;;
22363;SDS011;11349;53.412;-1.328;2023-07-13T13:46:11;2.80;;;1.30;;
22363;SDS011;11349;53.412;-1.328;2023-07-13T13:48:43;5.13;;;1.63;;
22363;SDS011;11349;53.412;-1.328;2023-07-13T13:51:16;5.63;;;1.45;;
22363;SDS011;11349;53.412;-1.328;2023-07-13T13:53:44;4.88;;;1.25;;
22363;SDS011;11349;53.412;-1.328;2023-07-13T13:56:11;4.63;;;1.55;;
22363;SDS011;11349;53.412;-1.328;2023-07-13T13:58:38;2.65;;;1.20;;
22363;SDS011;11349;53.412;-1.328;2023-07-13T14:01:16;3.47;;;1.40;;
22363;SDS011;11349;53.412;-1.328;2023-07-13T14:03:44;3.10;;;1.70;;
22363;SDS011;11349;53.412;-1.328;2023-07-13T14:06:13;4.15;;;1.40;;
22363;SDS011;11349;53.412;-1.328;2023-07-13T14:08:41;2.85;;;1.35;;
22363;SDS011;11349;53.412;-1.328;2023-07-13T14:11:11;3.47;;;1.23;;
22363;SDS011;11349;53.412;-1.328;2023-07-13T14:13:40;5.28;;;1.40;;
22363;SDS011;11349;53.412;-1.328;2023-07-13T14:16:17;4.38;;;1.60;;
22363;SDS011;11349;53.412;-1.328;2023-07-13T14:18:44;3.35;;;1.20;;
22363;SDS011;11349;53.412;-1.328;2023-07-13T14:21:14;2.15;;;1.15;;
22363;SDS011;11349;53.412;-1.328;2023-07-13T14:23:43;3.60;;;1.33;;
22363;SDS011;11349;53.412;-1.328;2023-07-13T14:26:14;4.13;;;1.65;;
22363;SDS011;11349;53.412;-1.328;2023-07-13T14:28:45;2.88;;;1.20;;
22363;SDS011;11349;53.412;-1.328;2023-07-13T14:31:19;4.13;;;1.45;;
22363;SDS011;11349;53.412;-1.328;2023-07-13T14:33:46;3.42;;;1.42;;
22363;SDS011;11349;53.412;-1.328;2023-07-13T14:38:54;5.82;;;1.33;;
22363;SDS011;11349;53.412;-1.328;2023-07-13T14:41:29;2.78;;;1.35;;
22363;SDS011;11349;53.412;-1.328;2023-07-13T14:43:55;3.17;;;1.20;;
22363;SDS011;11349;53.412;-1.328;2023-07-13T14:48:54;4.47;;;1.55;;
22363;SDS011;11349;53.412;-1.328;2023-07-13T14:51:31;2.88;;;1.23;;
22363;SDS011;11349;53.412;-1.328;2023-07-13T14:54:00;2.72;;;1.50;;
22363;SDS011;11349;53.412;-1.328;2023-07-13T14:56:28;3.38;;;1.70;;
22363;SDS011;11349;53.412;-1.328;2023-07-13T14:58:53;3.22;;;1.60;;
22363;SDS011;11349;53.412;-1.328;2023-07-13T15:01:19;5.07;;;1.90;;
22363;SDS011;11349;53.412;-1.328;2023-07-13T15:03:47;3.83;;;1.73;;
22363;SDS011;11349;53.412;-1.328;2023-07-13T15:06:15;3.53;;;1.42;;
22363;SDS011;11349;53.412;-1.328;2023-07-13T15:08:41;4.20;;;1.67;;
22363;SDS011;11349;53.412;-1.328;2023-07-13T15:11:07;3.05;;;1.45;;
22363;SDS011;11349;53.412;-1.328;2023-07-13T15:13:37;7.55;;;2.08;;
22363;SDS011;11349;53.412;-1.328;2023-07-13T15:16:03;3.78;;;1.58;;
22363;SDS011;11349;53.412;-1.328;2023-07-13T15:18:30;5.13;;;1.67;;
22363;SDS011;11349;53.412;-1.328;2023-07-13T15:20:56;3.72;;;1.38;;
22363;SDS011;11349;53.412;-1.328;2023-07-13T15:23:25;3.42;;;1.55;;
22363;SDS011;11349;53.412;-1.328;2023-07-13T15:25:52;2.55;;;1.35;;
22363;SDS011;11349;53.412;-1.328;2023-07-13T15:28:17;2.88;;;1.30;;
22363;SDS011;11349;53.412;-1.328;2023-07-13T15:30:44;3.33;;;1.40;;
22363;SDS011;11349;53.412;-1.328;2023-07-13T15:33:24;5.72;;;2.13;;
22363;SDS011;11349;53.412;-1.328;2023-07-13T15:35:52;2.97;;;1.60;;